This is the latest recevied weather packets stored in our database for station/object BMCB-13. If no packets are shown the sender has not sent any weather packets the latest 10 day(s).
| Time | Temp. | Humidity | Pressure | Rain* | Wind** | Luminosity | Snow |
|---|---|---|---|---|---|---|---|
| 1778199045 | 9.44° C | 92% | 1016.3 hPa | 0 mm | - | 0 W/m² | - |
| 1778197250 | 10° C | 92% | 1016.4 hPa | 0 mm | - | 0 W/m² | - |
| 1778195450 | 10° C | 90% | 1016.6 hPa | 0 mm | - | 0 W/m² | - |
| 1778194847 | 10° C | 92% | 1016.6 hPa | 0 mm | - | 0 W/m² | - |
| 1778191849 | 11.11° C | 86% | 1016.6 hPa | 0 mm | - | 0 W/m² | - |
| 1778190050 | 11.67° C | 71% | 1016.5 hPa | 0 mm | - | 0 W/m² | - |
| 1778188850 | 11.67° C | 74% | 1016.4 hPa | 0 mm | - | 0 W/m² | - |
| 1778186449 | 12.22° C | 68% | 1016.3 hPa | 0 mm | - | 0 W/m² | - |
| 1778185851 | 12.22° C | 69% | 1016.2 hPa | 0 mm | - | 0 W/m² | - |
| 1778184052 | 12.22° C | 69% | 1016 hPa | 0 mm | - | 0 W/m² | - |
| 1778182851 | 12.22° C | 71% | 1015.9 hPa | 0 mm | - | 0 W/m² | - |
| 1778176249 | 13.33° C | 65% | 1015.5 hPa | 0 mm | - | 50 W/m² | - |
| 1778175051 | 13.89° C | 65% | 1015.5 hPa | 0 mm | - | 74 W/m² | - |
| 1778172051 | 14.44° C | 61% | 1015.3 hPa | 0 mm | - | 112 W/m² | - |
| 1778169650 | 15° C | 61% | 1015.2 hPa | 0 mm | - | 168 W/m² | - |
| 1778164849 | 15° C | 54% | 1015 hPa | 0 mm | - | 264 W/m² | - |
| 1778162455 | 16.67° C | 51% | 1015.1 hPa | 0 mm | - | 716 W/m² | - |
| 1778161245 | 16.67° C | 51% | 1015.2 hPa | 0 mm | - | 808 W/m² | - |
| 1778160049 | 15.56° C | 55% | 1015.3 hPa | 0 mm | - | 724 W/m² | - |
| 1778158846 | 15.56° C | 55% | 1015.3 hPa | 0 mm | - | 536 W/m² | - |
| 1778155246 | 16.11° C | 59% | 1015.2 hPa | 0 mm | - | 608 W/m² | - |
| 1778149243 | 14.44° C | 68% | 1015.3 hPa | 0 mm | - | 756 W/m² | - |
| 1778148646 | 13.89° C | 72% | 1015.2 hPa | 0 mm | - | 794 W/m² | - |
| 1778143844 | 13.33° C | 81% | 1014.9 hPa | 0 mm | - | 606 W/m² | - |
| 1778139646 | 9.44° C | 89% | 1014.7 hPa | 0 mm | - | 284 W/m² | - |
* Rain latest hour (hover to see other rain measurements)
** Current wind speed in m/s (hover to see current wind gust speed)